sensor_id;sensor_type;location;lat;lon;timestamp;pressure;altitude;pressure_sealevel;temperature;humidity
37206;BME280;23099;42.636;23.198;2023-12-20T00:02:12;92239.78;;;-0.64;100.00
37206;BME280;23099;42.636;23.198;2023-12-20T00:04:40;92239.53;;;-0.49;100.00
37206;BME280;23099;42.636;23.198;2023-12-20T00:07:08;92236.19;;;-0.36;100.00
37206;BME280;23099;42.636;23.198;2023-12-20T00:09:39;92238.72;;;-0.31;100.00
37206;BME280;23099;42.636;23.198;2023-12-20T00:12:06;92235.19;;;-0.40;100.00
37206;BME280;23099;42.636;23.198;2023-12-20T00:14:33;92233.34;;;-0.40;100.00
37206;BME280;23099;42.636;23.198;2023-12-20T00:17:00;92229.88;;;-0.54;100.00
37206;BME280;23099;42.636;23.198;2023-12-20T00:19:26;92227.06;;;-0.57;100.00
37206;BME280;23099;42.636;23.198;2023-12-20T00:21:53;92223.19;;;-0.60;100.00
37206;BME280;23099;42.636;23.198;2023-12-20T00:24:21;92214.41;;;-0.55;100.00
37206;BME280;23099;42.636;23.198;2023-12-20T00:26:47;92216.09;;;-0.59;100.00
37206;BME280;23099;42.636;23.198;2023-12-20T00:29:17;92213.75;;;-0.61;100.00
37206;BME280;23099;42.636;23.198;2023-12-20T00:31:43;92224.47;;;-0.76;100.00
37206;BME280;23099;42.636;23.198;2023-12-20T00:34:10;92215.47;;;-0.89;100.00
37206;BME280;23099;42.636;23.198;2023-12-20T00:36:36;92200.41;;;-0.83;100.00
37206;BME280;23099;42.636;23.198;2023-12-20T00:39:03;92192.34;;;-0.87;100.00
37206;BME280;23099;42.636;23.198;2023-12-20T00:41:31;92193.47;;;-1.12;100.00
37206;BME280;23099;42.636;23.198;2023-12-20T00:44:00;92185.97;;;-0.99;100.00
37206;BME280;23099;42.636;23.198;2023-12-20T00:46:27;92189.31;;;-0.94;100.00
37206;BME280;23099;42.636;23.198;2023-12-20T00:48:58;92190.88;;;-0.93;100.00
37206;BME280;23099;42.636;23.198;2023-12-20T00:51:25;92187.34;;;-1.02;100.00
37206;BME280;23099;42.636;23.198;2023-12-20T00:53:54;92190.38;;;-0.95;100.00
37206;BME280;23099;42.636;23.198;2023-12-20T00:56:21;92188.25;;;-0.93;100.00
37206;BME280;23099;42.636;23.198;2023-12-20T00:58:49;92189.75;;;-1.05;100.00
37206;BME280;23099;42.636;23.198;2023-12-20T01:01:15;92183.00;;;-0.93;100.00
37206;BME280;23099;42.636;23.198;2023-12-20T01:03:42;92180.66;;;-0.94;100.00
37206;BME280;23099;42.636;23.198;2023-12-20T01:06:09;92170.66;;;-0.92;100.00
37206;BME280;23099;42.636;23.198;2023-12-20T01:08:37;92175.69;;;-0.96;100.00
37206;BME280;23099;42.636;23.198;2023-12-20T01:11:08;92166.41;;;-1.07;100.00
37206;BME280;23099;42.636;23.198;2023-12-20T01:13:38;92164.91;;;-1.13;100.00
37206;BME280;23099;42.636;23.198;2023-12-20T01:16:10;92160.09;;;-1.06;100.00
37206;BME280;23099;42.636;23.198;2023-12-20T01:18:37;92154.38;;;-1.08;100.00
37206;BME280;23099;42.636;23.198;2023-12-20T01:21:04;92152.75;;;-1.04;100.00
37206;BME280;23099;42.636;23.198;2023-12-20T01:23:32;92152.31;;;-1.11;100.00
37206;BME280;23099;42.636;23.198;2023-12-20T01:26:00;92150.84;;;-1.17;100.00
37206;BME280;23099;42.636;23.198;2023-12-20T01:28:29;92154.84;;;-1.25;100.00
37206;BME280;23099;42.636;23.198;2023-12-20T01:30:56;92148.72;;;-1.34;100.00
37206;BME280;23099;42.636;23.198;2023-12-20T01:33:24;92144.75;;;-1.31;100.00
37206;BME280;23099;42.636;23.198;2023-12-20T01:35:51;92136.50;;;-1.25;100.00
37206;BME280;23099;42.636;23.198;2023-12-20T01:38:18;92132.19;;;-1.34;100.00
37206;BME280;23099;42.636;23.198;2023-12-20T01:40:45;92128.63;;;-1.25;100.00
37206;BME280;23099;42.636;23.198;2023-12-20T01:43:12;92133.25;;;-1.35;100.00
37206;BME280;23099;42.636;23.198;2023-12-20T01:45:40;92127.50;;;-1.37;100.00
37206;BME280;23099;42.636;23.198;2023-12-20T01:48:08;92123.69;;;-1.45;100.00
37206;BME280;23099;42.636;23.198;2023-12-20T01:50:37;92125.47;;;-1.59;100.00
37206;BME280;23099;42.636;23.198;2023-12-20T01:53:05;92111.09;;;-1.62;100.00
37206;BME280;23099;42.636;23.198;2023-12-20T01:55:36;92110.13;;;-1.71;100.00
37206;BME280;23099;42.636;23.198;2023-12-20T01:58:04;92106.03;;;-1.77;100.00
37206;BME280;23099;42.636;23.198;2023-12-20T02:00:31;92101.69;;;-1.87;100.00
37206;BME280;23099;42.636;23.198;2023-12-20T02:03:01;92103.53;;;-1.87;100.00
37206;BME280;23099;42.636;23.198;2023-12-20T02:05:29;92095.34;;;-1.81;100.00
37206;BME280;23099;42.636;23.198;2023-12-20T02:08:06;92099.31;;;-1.83;100.00
37206;BME280;23099;42.636;23.198;2023-12-20T02:10:34;92094.50;;;-1.76;100.00
37206;BME280;23099;42.636;23.198;2023-12-20T02:13:01;92086.00;;;-1.68;100.00
37206;BME280;23099;42.636;23.198;2023-12-20T02:15:27;92084.00;;;-1.57;100.00
37206;BME280;23099;42.636;23.198;2023-12-20T02:17:54;92080.00;;;-1.50;100.00
37206;BME280;23099;42.636;23.198;2023-12-20T02:20:21;92056.91;;;-1.66;100.00
37206;BME280;23099;42.636;23.198;2023-12-20T02:22:51;92072.06;;;-1.45;100.00
37206;BME280;23099;42.636;23.198;2023-12-20T02:25:19;92074.03;;;-1.36;100.00
37206;BME280;23099;42.636;23.198;2023-12-20T02:27:46;92068.72;;;-1.31;100.00
37206;BME280;23099;42.636;23.198;2023-12-20T02:30:13;92062.31;;;-1.25;100.00
37206;BME280;23099;42.636;23.198;2023-12-20T02:32:39;92065.31;;;-1.32;100.00
37206;BME280;23099;42.636;23.198;2023-12-20T02:35:06;92057.97;;;-1.49;100.00
37206;BME280;23099;42.636;23.198;2023-12-20T02:37:33;92047.31;;;-1.38;100.00
37206;BME280;23099;42.636;23.198;2023-12-20T02:40:01;92058.78;;;-1.34;100.00
37206;BME280;23099;42.636;23.198;2023-12-20T02:42:30;92054.69;;;-1.40;100.00
37206;BME280;23099;42.636;23.198;2023-12-20T02:44:59;92053.78;;;-1.50;100.00
37206;BME280;23099;42.636;23.198;2023-12-20T02:47:26;92055.69;;;-1.55;99.71
37206;BME280;23099;42.636;23.198;2023-12-20T02:49:56;92054.84;;;-1.69;98.90
37206;BME280;23099;42.636;23.198;2023-12-20T02:52:27;92054.56;;;-1.87;100.00
37206;BME280;23099;42.636;23.198;2023-12-20T02:54:54;92056.88;;;-1.85;100.00
37206;BME280;23099;42.636;23.198;2023-12-20T02:57:22;92060.09;;;-1.88;100.00
37206;BME280;23099;42.636;23.198;2023-12-20T02:59:48;92059.22;;;-1.84;100.00
37206;BME280;23099;42.636;23.198;2023-12-20T03:02:15;92052.13;;;-2.02;100.00
37206;BME280;23099;42.636;23.198;2023-12-20T03:04:42;92053.13;;;-1.98;100.00
37206;BME280;23099;42.636;23.198;2023-12-20T03:07:08;92051.94;;;-2.05;100.00
37206;BME280;23099;42.636;23.198;2023-12-20T03:09:37;92049.31;;;-2.05;100.00
37206;BME280;23099;42.636;23.198;2023-12-20T03:12:04;92037.34;;;-2.11;100.00
37206;BME280;23099;42.636;23.198;2023-12-20T03:14:32;92050.28;;;-2.01;100.00
37206;BME280;23099;42.636;23.198;2023-12-20T03:16:59;92053.69;;;-2.01;100.00
37206;BME280;23099;42.636;23.198;2023-12-20T03:19:27;92049.19;;;-1.95;100.00
37206;BME280;23099;42.636;23.198;2023-12-20T03:21:56;92048.13;;;-1.94;100.00
37206;BME280;23099;42.636;23.198;2023-12-20T03:24:26;92048.94;;;-1.99;100.00
37206;BME280;23099;42.636;23.198;2023-12-20T03:26:53;92037.78;;;-2.04;100.00
37206;BME280;23099;42.636;23.198;2023-12-20T03:29:19;92035.72;;;-2.07;100.00
37206;BME280;23099;42.636;23.198;2023-12-20T03:31:49;92026.16;;;-2.17;100.00
37206;BME280;23099;42.636;23.198;2023-12-20T03:34:18;92026.88;;;-2.11;100.00
37206;BME280;23099;42.636;23.198;2023-12-20T03:36:44;92023.88;;;-2.24;100.00
37206;BME280;23099;42.636;23.198;2023-12-20T03:39:12;92020.16;;;-2.41;100.00
37206;BME280;23099;42.636;23.198;2023-12-20T03:41:39;92016.56;;;-2.45;100.00
37206;BME280;23099;42.636;23.198;2023-12-20T03:44:06;92021.59;;;-2.49;100.00
37206;BME280;23099;42.636;23.198;2023-12-20T03:46:32;92024.44;;;-2.45;100.00
37206;BME280;23099;42.636;23.198;2023-12-20T03:49:00;92024.06;;;-2.39;100.00
37206;BME280;23099;42.636;23.198;2023-12-20T03:51:27;92027.50;;;-2.20;100.00
37206;BME280;23099;42.636;23.198;2023-12-20T03:53:55;92022.47;;;-2.35;100.00
37206;BME280;23099;42.636;23.198;2023-12-20T03:56:22;92020.63;;;-2.34;100.00
37206;BME280;23099;42.636;23.198;2023-12-20T03:58:48;92026.25;;;-2.46;100.00
37206;BME280;23099;42.636;23.198;2023-12-20T04:01:15;92023.16;;;-2.48;100.00
37206;BME280;23099;42.636;23.198;2023-12-20T04:03:41;92014.00;;;-2.51;100.00
37206;BME280;23099;42.636;23.198;2023-12-20T04:06:20;92015.28;;;-2.48;100.00
37206;BME280;23099;42.636;23.198;2023-12-20T04:08:46;92010.63;;;-2.51;100.00
37206;BME280;23099;42.636;23.198;2023-12-20T04:11:13;92010.50;;;-2.65;100.00
37206;BME280;23099;42.636;23.198;2023-12-20T04:13:40;92002.38;;;-2.63;100.00
37206;BME280;23099;42.636;23.198;2023-12-20T04:16:06;91999.00;;;-2.64;100.00
37206;BME280;23099;42.636;23.198;2023-12-20T04:18:36;91999.03;;;-2.69;100.00
37206;BME280;23099;42.636;23.198;2023-12-20T04:21:03;91995.41;;;-2.73;100.00
37206;BME280;23099;42.636;23.198;2023-12-20T04:23:33;91973.78;;;-3.02;100.00
37206;BME280;23099;42.636;23.198;2023-12-20T04:26:00;92004.41;;;-2.79;100.00
37206;BME280;23099;42.636;23.198;2023-12-20T04:28:26;91989.81;;;-2.85;100.00
37206;BME280;23099;42.636;23.198;2023-12-20T04:30:55;91988.16;;;-2.76;100.00
37206;BME280;23099;42.636;23.198;2023-12-20T04:33:24;91978.34;;;-2.65;100.00
37206;BME280;23099;42.636;23.198;2023-12-20T04:35:51;91981.38;;;-2.58;100.00
37206;BME280;23099;42.636;23.198;2023-12-20T04:38:18;91978.75;;;-2.58;100.00
37206;BME280;23099;42.636;23.198;2023-12-20T04:40:47;91974.03;;;-2.75;100.00
37206;BME280;23099;42.636;23.198;2023-12-20T04:43:17;91984.91;;;-2.68;100.00
37206;BME280;23099;42.636;23.198;2023-12-20T04:45:44;91977.19;;;-2.59;100.00
37206;BME280;23099;42.636;23.198;2023-12-20T04:48:12;91975.69;;;-2.60;100.00
37206;BME280;23099;42.636;23.198;2023-12-20T04:50:39;91970.63;;;-2.57;100.00
37206;BME280;23099;42.636;23.198;2023-12-20T04:53:05;91977.88;;;-2.48;100.00
37206;BME280;23099;42.636;23.198;2023-12-20T04:55:32;91968.56;;;-2.36;100.00
37206;BME280;23099;42.636;23.198;2023-12-20T04:58:01;91967.78;;;-2.36;100.00
37206;BME280;23099;42.636;23.198;2023-12-20T05:00:29;91964.72;;;-2.25;100.00
37206;BME280;23099;42.636;23.198;2023-12-20T05:02:58;91972.16;;;-2.13;100.00
37206;BME280;23099;42.636;23.198;2023-12-20T05:05:25;91962.47;;;-2.13;100.00
37206;BME280;23099;42.636;23.198;2023-12-20T05:07:52;91961.84;;;-2.04;100.00
37206;BME280;23099;42.636;23.198;2023-12-20T05:10:19;91964.31;;;-1.94;100.00
37206;BME280;23099;42.636;23.198;2023-12-20T05:12:45;91948.94;;;-2.01;100.00
37206;BME280;23099;42.636;23.198;2023-12-20T05:15:16;91952.00;;;-1.94;100.00
37206;BME280;23099;42.636;23.198;2023-12-20T05:17:42;91951.94;;;-1.89;100.00
37206;BME280;23099;42.636;23.198;2023-12-20T05:20:14;91945.41;;;-1.91;100.00
37206;BME280;23099;42.636;23.198;2023-12-20T05:22:41;91949.66;;;-1.95;100.00
37206;BME280;23099;42.636;23.198;2023-12-20T05:25:08;91935.94;;;-2.06;100.00
37206;BME280;23099;42.636;23.198;2023-12-20T05:27:34;91942.09;;;-2.16;100.00
37206;BME280;23099;42.636;23.198;2023-12-20T05:30:04;91941.88;;;-2.38;100.00
37206;BME280;23099;42.636;23.198;2023-12-20T05:32:33;91934.50;;;-2.55;100.00
37206;BME280;23099;42.636;23.198;2023-12-20T05:35:02;91924.78;;;-2.73;100.00
37206;BME280;23099;42.636;23.198;2023-12-20T05:37:29;91927.72;;;-2.74;100.00
37206;BME280;23099;42.636;23.198;2023-12-20T05:39:56;91929.38;;;-2.83;100.00
37206;BME280;23099;42.636;23.198;2023-12-20T05:42:22;91929.94;;;-2.87;100.00
37206;BME280;23099;42.636;23.198;2023-12-20T05:44:49;91926.16;;;-2.99;100.00
37206;BME280;23099;42.636;23.198;2023-12-20T05:47:19;91925.72;;;-3.06;100.00
37206;BME280;23099;42.636;23.198;2023-12-20T05:49:47;91919.81;;;-3.17;100.00
37206;BME280;23099;42.636;23.198;2023-12-20T05:52:19;91929.88;;;-3.29;100.00
37206;BME280;23099;42.636;23.198;2023-12-20T05:54:46;91923.69;;;-3.33;100.00
37206;BME280;23099;42.636;23.198;2023-12-20T05:57:12;91927.94;;;-3.42;100.00
37206;BME280;23099;42.636;23.198;2023-12-20T05:59:39;91903.47;;;-3.51;100.00
37206;BME280;23099;42.636;23.198;2023-12-20T06:02:06;91920.47;;;-3.54;100.00
37206;BME280;23099;42.636;23.198;2023-12-20T06:04:32;91913.69;;;-3.55;100.00
37206;BME280;23099;42.636;23.198;2023-12-20T06:07:02;91899.19;;;-3.66;100.00
37206;BME280;23099;42.636;23.198;2023-12-20T06:09:28;91913.31;;;-3.72;100.00
37206;BME280;23099;42.636;23.198;2023-12-20T06:11:55;91902.56;;;-3.66;100.00
37206;BME280;23099;42.636;23.198;2023-12-20T06:14:25;91910.63;;;-3.62;100.00
37206;BME280;23099;42.636;23.198;2023-12-20T06:16:51;91912.00;;;-3.70;100.00
37206;BME280;23099;42.636;23.198;2023-12-20T06:19:18;91915.56;;;-3.61;100.00
37206;BME280;23099;42.636;23.198;2023-12-20T06:21:45;91913.66;;;-3.50;100.00
37206;BME280;23099;42.636;23.198;2023-12-20T06:24:13;91917.66;;;-3.34;100.00
37206;BME280;23099;42.636;23.198;2023-12-20T06:26:42;91920.41;;;-3.20;100.00
37206;BME280;23099;42.636;23.198;2023-12-20T06:29:12;91914.72;;;-3.03;100.00
37206;BME280;23099;42.636;23.198;2023-12-20T06:31:38;91911.25;;;-2.99;100.00
37206;BME280;23099;42.636;23.198;2023-12-20T06:34:06;91909.25;;;-2.83;100.00
37206;BME280;23099;42.636;23.198;2023-12-20T06:36:35;91911.25;;;-2.75;100.00
37206;BME280;23099;42.636;23.198;2023-12-20T06:39:02;91914.56;;;-2.69;100.00
37206;BME280;23099;42.636;23.198;2023-12-20T06:41:33;91910.97;;;-2.55;100.00
37206;BME280;23099;42.636;23.198;2023-12-20T06:44:01;91909.28;;;-2.45;100.00
37206;BME280;23099;42.636;23.198;2023-12-20T06:46:31;91913.44;;;-2.63;100.00
37206;BME280;23099;42.636;23.198;2023-12-20T06:48:58;91911.16;;;-2.70;98.89
37206;BME280;23099;42.636;23.198;2023-12-20T06:51:24;91900.13;;;-2.86;97.50
37206;BME280;23099;42.636;23.198;2023-12-20T06:53:51;91908.13;;;-3.01;98.73
37206;BME280;23099;42.636;23.198;2023-12-20T06:56:18;91910.75;;;-3.01;100.00
37206;BME280;23099;42.636;23.198;2023-12-20T06:58:46;91907.03;;;-2.95;100.00
37206;BME280;23099;42.636;23.198;2023-12-20T07:01:13;91917.50;;;-2.95;100.00
37206;BME280;23099;42.636;23.198;2023-12-20T07:03:43;91905.94;;;-3.12;100.00
37206;BME280;23099;42.636;23.198;2023-12-20T07:06:15;91900.44;;;-3.35;100.00
37206;BME280;23099;42.636;23.198;2023-12-20T07:08:42;91881.59;;;-3.61;100.00
37206;BME280;23099;42.636;23.198;2023-12-20T07:11:12;91889.38;;;-3.50;100.00
37206;BME280;23099;42.636;23.198;2023-12-20T07:13:39;91880.97;;;-3.47;100.00
37206;BME280;23099;42.636;23.198;2023-12-20T07:16:07;91887.91;;;-3.38;100.00
37206;BME280;23099;42.636;23.198;2023-12-20T07:18:36;91883.34;;;-3.27;100.00
37206;BME280;23099;42.636;23.198;2023-12-20T07:21:03;91883.72;;;-3.15;100.00
37206;BME280;23099;42.636;23.198;2023-12-20T07:23:30;91883.13;;;-3.07;100.00
37206;BME280;23099;42.636;23.198;2023-12-20T07:25:58;91883.06;;;-3.02;100.00
37206;BME280;23099;42.636;23.198;2023-12-20T07:28:25;91880.75;;;-3.03;100.00
37206;BME280;23099;42.636;23.198;2023-12-20T07:30:52;91876.16;;;-2.93;100.00
37206;BME280;23099;42.636;23.198;2023-12-20T07:33:20;91865.16;;;-2.90;100.00
37206;BME280;23099;42.636;23.198;2023-12-20T07:35:46;91868.53;;;-2.89;100.00
37206;BME280;23099;42.636;23.198;2023-12-20T07:38:13;91868.53;;;-2.89;100.00
37206;BME280;23099;42.636;23.198;2023-12-20T07:40:40;91867.94;;;-2.86;100.00
37206;BME280;23099;42.636;23.198;2023-12-20T07:43:08;91865.13;;;-2.71;100.00
37206;BME280;23099;42.636;23.198;2023-12-20T07:45:35;91861.69;;;-2.66;100.00
37206;BME280;23099;42.636;23.198;2023-12-20T07:48:04;91860.25;;;-2.59;100.00
37206;BME280;23099;42.636;23.198;2023-12-20T07:50:32;91870.44;;;-2.38;100.00
37206;BME280;23099;42.636;23.198;2023-12-20T07:52:59;91865.38;;;-2.16;100.00
37206;BME280;23099;42.636;23.198;2023-12-20T07:55:26;91862.75;;;-1.97;100.00
37206;BME280;23099;42.636;23.198;2023-12-20T07:57:53;91864.53;;;-1.79;100.00
37206;BME280;23099;42.636;23.198;2023-12-20T08:00:19;91858.34;;;-1.56;100.00
37206;BME280;23099;42.636;23.198;2023-12-20T08:02:48;91847.50;;;-1.35;100.00
37206;BME280;23099;42.636;23.198;2023-12-20T08:05:14;91849.44;;;-1.00;100.00
37206;BME280;23099;42.636;23.198;2023-12-20T08:07:45;91842.00;;;-0.71;99.96
37206;BME280;23099;42.636;23.198;2023-12-20T08:10:13;91845.56;;;-0.53;97.85
37206;BME280;23099;42.636;23.198;2023-12-20T08:12:40;91857.09;;;-0.40;97.00
37206;BME280;23099;42.636;23.198;2023-12-20T08:15:07;91850.38;;;-0.32;96.55
37206;BME280;23099;42.636;23.198;2023-12-20T08:17:34;91847.22;;;-0.21;96.33
37206;BME280;23099;42.636;23.198;2023-12-20T08:20:01;91845.31;;;-0.29;97.79
37206;BME280;23099;42.636;23.198;2023-12-20T08:22:27;91844.53;;;-0.29;99.53
37206;BME280;23099;42.636;23.198;2023-12-20T08:24:55;91843.59;;;-0.33;100.00
37206;BME280;23099;42.636;23.198;2023-12-20T08:27:22;91847.97;;;-0.43;99.12
37206;BME280;23099;42.636;23.198;2023-12-20T08:29:49;91834.44;;;-0.58;98.40
37206;BME280;23099;42.636;23.198;2023-12-20T08:32:16;91824.03;;;-0.63;98.41
37206;BME280;23099;42.636;23.198;2023-12-20T08:34:42;91832.69;;;-0.63;98.64
37206;BME280;23099;42.636;23.198;2023-12-20T08:37:09;91833.81;;;-0.55;99.60
37206;BME280;23099;42.636;23.198;2023-12-20T08:39:36;91830.31;;;-0.51;99.36
37206;BME280;23099;42.636;23.198;2023-12-20T08:42:04;91810.44;;;-0.43;99.45
37206;BME280;23099;42.636;23.198;2023-12-20T08:44:34;91812.66;;;-0.37;99.10
37206;BME280;23099;42.636;23.198;2023-12-20T08:47:06;91814.75;;;-0.25;98.56
37206;BME280;23099;42.636;23.198;2023-12-20T08:49:33;91823.78;;;-0.17;98.09
37206;BME280;23099;42.636;23.198;2023-12-20T08:52:04;91812.91;;;-0.02;97.98
37206;BME280;23099;42.636;23.198;2023-12-20T08:54:31;91801.97;;;0.05;96.81
37206;BME280;23099;42.636;23.198;2023-12-20T08:56:59;91802.25;;;0.03;97.22
37206;BME280;23099;42.636;23.198;2023-12-20T08:59:27;91799.84;;;0.15;97.46
37206;BME280;23099;42.636;23.198;2023-12-20T09:01:54;91796.16;;;0.16;95.94
37206;BME280;23099;42.636;23.198;2023-12-20T09:04:21;91786.63;;;0.29;96.08
37206;BME280;23099;42.636;23.198;2023-12-20T09:06:48;91786.50;;;0.34;97.35
37206;BME280;23099;42.636;23.198;2023-12-20T09:09:14;91777.44;;;0.49;96.70
37206;BME280;23099;42.636;23.198;2023-12-20T09:11:41;91774.22;;;0.52;96.93
37206;BME280;23099;42.636;23.198;2023-12-20T09:14:08;91767.59;;;0.63;98.20
37206;BME280;23099;42.636;23.198;2023-12-20T09:16:36;91757.56;;;0.74;97.67
37206;BME280;23099;42.636;23.198;2023-12-20T09:19:05;91741.81;;;0.82;97.62
37206;BME280;23099;42.636;23.198;2023-12-20T09:21:32;91734.53;;;0.88;97.79
37206;BME280;23099;42.636;23.198;2023-12-20T09:23:59;91720.16;;;0.94;99.68
37206;BME280;23099;42.636;23.198;2023-12-20T09:26:25;91712.59;;;1.18;98.27
37206;BME280;23099;42.636;23.198;2023-12-20T09:28:52;91704.88;;;1.39;98.18
37206;BME280;23099;42.636;23.198;2023-12-20T09:31:19;91709.81;;;1.58;97.04
37206;BME280;23099;42.636;23.198;2023-12-20T09:33:47;91700.59;;;1.90;95.48
37206;BME280;23099;42.636;23.198;2023-12-20T09:36:13;91699.50;;;1.99;96.12
37206;BME280;23099;42.636;23.198;2023-12-20T09:38:41;91688.56;;;2.18;94.44
37206;BME280;23099;42.636;23.198;2023-12-20T09:41:09;91680.88;;;2.42;91.73
37206;BME280;23099;42.636;23.198;2023-12-20T09:43:37;91680.91;;;2.63;94.16
37206;BME280;23099;42.636;23.198;2023-12-20T09:46:06;91676.34;;;3.02;89.16
37206;BME280;23099;42.636;23.198;2023-12-20T09:48:33;91675.28;;;3.36;88.20
37206;BME280;23099;42.636;23.198;2023-12-20T09:51:02;91666.84;;;3.75;87.75
37206;BME280;23099;42.636;23.198;2023-12-20T09:53:29;91658.94;;;4.45;84.11
37206;BME280;23099;42.636;23.198;2023-12-20T09:55:58;91645.94;;;5.28;79.20
37206;BME280;23099;42.636;23.198;2023-12-20T09:58:25;91632.53;;;5.93;75.31
37206;BME280;23099;42.636;23.198;2023-12-20T10:00:53;91640.88;;;6.38;69.43
37206;BME280;23099;42.636;23.198;2023-12-20T10:03:23;91632.47;;;6.68;69.48
37206;BME280;23099;42.636;23.198;2023-12-20T10:05:54;91636.19;;;6.98;68.13
37206;BME280;23099;42.636;23.198;2023-12-20T10:08:24;91638.25;;;7.05;66.54
37206;BME280;23099;42.636;23.198;2023-12-20T10:10:51;91626.31;;;7.34;66.18
37206;BME280;23099;42.636;23.198;2023-12-20T10:13:18;91632.22;;;7.62;64.81
37206;BME280;23099;42.636;23.198;2023-12-20T10:15:44;91633.72;;;8.02;62.50
37206;BME280;23099;42.636;23.198;2023-12-20T10:18:12;91634.41;;;8.41;60.43
37206;BME280;23099;42.636;23.198;2023-12-20T10:20:41;91625.75;;;8.70;57.85
37206;BME280;23099;42.636;23.198;2023-12-20T10:23:08;91628.19;;;8.79;58.00
37206;BME280;23099;42.636;23.198;2023-12-20T10:25:38;91613.41;;;8.85;58.48
37206;BME280;23099;42.636;23.198;2023-12-20T10:28:11;91600.03;;;8.81;57.39
37206;BME280;23099;42.636;23.198;2023-12-20T10:30:38;91600.97;;;8.93;57.25
37206;BME280;23099;42.636;23.198;2023-12-20T10:33:07;91606.25;;;8.89;58.00
37206;BME280;23099;42.636;23.198;2023-12-20T10:35:34;91601.22;;;8.84;57.89
37206;BME280;23099;42.636;23.198;2023-12-20T10:38:03;91594.47;;;8.90;58.14
37206;BME280;23099;42.636;23.198;2023-12-20T10:40:30;91590.47;;;9.03;57.03
37206;BME280;23099;42.636;23.198;2023-12-20T10:42:59;91588.88;;;8.99;56.29
37206;BME280;23099;42.636;23.198;2023-12-20T10:45:30;91583.13;;;9.27;56.52
37206;BME280;23099;42.636;23.198;2023-12-20T10:47:57;91578.81;;;9.45;55.50
37206;BME280;23099;42.636;23.198;2023-12-20T10:50:26;91578.38;;;9.73;53.98
37206;BME280;23099;42.636;23.198;2023-12-20T10:52:59;91589.16;;;9.83;54.26
37206;BME280;23099;42.636;23.198;2023-12-20T10:55:28;91576.31;;;10.33;54.36
37206;BME280;23099;42.636;23.198;2023-12-20T10:58:02;91575.13;;;10.75;52.46
37206;BME280;23099;42.636;23.198;2023-12-20T11:00:37;91566.94;;;11.12;50.72
37206;BME280;23099;42.636;23.198;2023-12-20T11:03:06;91562.09;;;11.31;48.89
37206;BME280;23099;42.636;23.198;2023-12-20T11:05:40;91551.56;;;11.74;48.67
37206;BME280;23099;42.636;23.198;2023-12-20T11:08:14;91542.41;;;11.75;47.22
37206;BME280;23099;42.636;23.198;2023-12-20T11:10:49;91547.47;;;12.12;49.02
37206;BME280;23099;42.636;23.198;2023-12-20T11:13:23;91544.84;;;12.23;46.49
37206;BME280;23099;42.636;23.198;2023-12-20T11:15:54;91539.88;;;12.50;44.97
37206;BME280;23099;42.636;23.198;2023-12-20T11:18:28;91531.44;;;12.83;44.02
37206;BME280;23099;42.636;23.198;2023-12-20T11:21:00;91523.38;;;12.87;44.41
37206;BME280;23099;42.636;23.198;2023-12-20T11:23:29;91511.88;;;12.90;44.11
37206;BME280;23099;42.636;23.198;2023-12-20T11:25:58;91510.72;;;12.94;44.24
37206;BME280;23099;42.636;23.198;2023-12-20T11:28:28;91505.78;;;12.71;45.01
37206;BME280;23099;42.636;23.198;2023-12-20T11:30:57;91505.75;;;12.86;46.25
37206;BME280;23099;42.636;23.198;2023-12-20T11:33:26;91483.97;;;12.62;43.82
37206;BME280;23099;42.636;23.198;2023-12-20T11:35:55;91488.53;;;12.83;44.94
37206;BME280;23099;42.636;23.198;2023-12-20T11:38:25;91470.91;;;12.79;44.74
37206;BME280;23099;42.636;23.198;2023-12-20T11:40:54;91484.72;;;12.77;44.79
37206;BME280;23099;42.636;23.198;2023-12-20T11:43:32;91480.00;;;13.13;44.90
37206;BME280;23099;42.636;23.198;2023-12-20T11:46:04;91491.16;;;13.12;44.21
37206;BME280;23099;42.636;23.198;2023-12-20T11:48:35;91481.19;;;13.05;44.89
37206;BME280;23099;42.636;23.198;2023-12-20T11:51:02;91458.56;;;13.17;46.53
37206;BME280;23099;42.636;23.198;2023-12-20T11:53:30;91464.75;;;12.92;45.47
37206;BME280;23099;42.636;23.198;2023-12-20T11:55:59;91467.44;;;12.92;47.74
37206;BME280;23099;42.636;23.198;2023-12-20T11:58:28;91450.66;;;12.53;47.88
37206;BME280;23099;42.636;23.198;2023-12-20T12:00:59;91450.66;;;12.35;47.97
37206;BME280;23099;42.636;23.198;2023-12-20T12:03:27;91439.19;;;12.31;47.34
37206;BME280;23099;42.636;23.198;2023-12-20T12:05:54;91442.25;;;11.90;46.82
37206;BME280;23099;42.636;23.198;2023-12-20T12:08:21;91433.47;;;11.83;48.53
37206;BME280;23099;42.636;23.198;2023-12-20T12:10:47;91426.56;;;11.78;48.79
37206;BME280;23099;42.636;23.198;2023-12-20T12:13:14;91424.53;;;11.43;47.74
37206;BME280;23099;42.636;23.198;2023-12-20T12:15:44;91421.06;;;11.25;47.14
37206;BME280;23099;42.636;23.198;2023-12-20T12:18:15;91415.69;;;11.18;46.18
37206;BME280;23099;42.636;23.198;2023-12-20T12:20:42;91410.69;;;11.13;47.46
37206;BME280;23099;42.636;23.198;2023-12-20T12:23:11;91416.03;;;11.02;46.84
37206;BME280;23099;42.636;23.198;2023-12-20T12:25:39;91411.00;;;10.90;46.66
37206;BME280;23099;42.636;23.198;2023-12-20T12:28:06;91411.72;;;10.76;47.52
37206;BME280;23099;42.636;23.198;2023-12-20T12:30:33;91397.50;;;10.58;47.06
37206;BME280;23099;42.636;23.198;2023-12-20T12:33:00;91404.66;;;10.43;47.78
37206;BME280;23099;42.636;23.198;2023-12-20T12:35:28;91400.00;;;10.30;48.39
37206;BME280;23099;42.636;23.198;2023-12-20T12:37:55;91399.53;;;10.17;49.78
37206;BME280;23099;42.636;23.198;2023-12-20T12:40:21;91401.34;;;10.06;49.07
37206;BME280;23099;42.636;23.198;2023-12-20T12:42:48;91411.97;;;9.99;48.62
37206;BME280;23099;42.636;23.198;2023-12-20T12:45:15;91413.06;;;9.90;49.71
37206;BME280;23099;42.636;23.198;2023-12-20T12:47:42;91412.59;;;9.81;49.83
37206;BME280;23099;42.636;23.198;2023-12-20T12:50:09;91408.34;;;9.73;50.44